createdAt,value
2017-10-03T00:01:04.745Z,98848
2017-10-03T00:03:10.928Z,98847
2017-10-03T00:05:17.005Z,98841
2017-10-03T00:07:22.427Z,98837
2017-10-03T00:09:34.127Z,98839
2017-10-03T00:11:40.355Z,98840
2017-10-03T00:16:10.578Z,98844
2017-10-03T00:18:17.707Z,98843
2017-10-03T00:20:24.936Z,98841
2017-10-03T00:22:33.386Z,98839
2017-10-03T00:24:39.244Z,98838
2017-10-03T00:26:47.191Z,98836
2017-10-03T00:28:53.438Z,98832
2017-10-03T00:30:59.852Z,98832
2017-10-03T00:33:05.278Z,98827
2017-10-03T00:35:11.223Z,98837
2017-10-03T00:37:21.268Z,98834
2017-10-03T00:39:27.472Z,98826
2017-10-03T00:41:33.638Z,98832
2017-10-03T00:43:40.866Z,98830
2017-10-03T00:45:49.088Z,98819
2017-10-03T00:47:55.511Z,98822
2017-10-03T00:50:01.541Z,98815
2017-10-03T00:52:07.810Z,98825
2017-10-03T00:54:16.716Z,98824
2017-10-03T00:56:25.361Z,98805
2017-10-03T00:58:33.087Z,98805
2017-10-03T01:00:39.127Z,98807
2017-10-03T01:02:47.225Z,98798
2017-10-03T01:04:53.205Z,98798
2017-10-03T01:06:59.356Z,98804
2017-10-03T01:09:05.986Z,98796
2017-10-03T01:11:12.150Z,98795
2017-10-03T01:13:19.582Z,98794
2017-10-03T01:15:27.967Z,98794
2017-10-03T01:17:38.536Z,98793
2017-10-03T01:19:44.918Z,98795
2017-10-03T01:21:54.354Z,98796
2017-10-03T01:24:00.805Z,98795
2017-10-03T01:26:07.132Z,98797
2017-10-03T01:28:17.980Z,98798
2017-10-03T01:30:24.367Z,98796
2017-10-03T01:32:31.547Z,98797
2017-10-03T01:34:40.142Z,98793
2017-10-03T01:36:46.007Z,98792
2017-10-03T01:38:55.611Z,98794
2017-10-03T01:41:02.076Z,98795
2017-10-03T01:43:08.203Z,98795
2017-10-03T01:45:14.172Z,98793
2017-10-03T01:47:22.282Z,98790
2017-10-03T01:49:28.335Z,98784
2017-10-03T01:51:35.039Z,98783
2017-10-03T01:53:44.526Z,98783
2017-10-03T01:55:53.450Z,98787
2017-10-03T01:58:02.336Z,98783
2017-10-03T02:00:15.100Z,98781
2017-10-03T02:02:21.820Z,98784
2017-10-03T02:04:28.376Z,98789
2017-10-03T02:06:37.411Z,98786
2017-10-03T02:08:43.222Z,98789
2017-10-03T02:10:50.884Z,98788
2017-10-03T02:12:57.289Z,98787
2017-10-03T02:15:02.987Z,98778
2017-10-03T02:17:08.934Z,98786
2017-10-03T02:19:16.366Z,98786
2017-10-03T02:21:22.492Z,98785
2017-10-03T02:23:28.990Z,98783
2017-10-03T02:25:34.897Z,98788
2017-10-03T02:27:40.919Z,98785
2017-10-03T02:29:46.961Z,98781
2017-10-03T02:31:56.916Z,98783
2017-10-03T02:34:03.095Z,98785
2017-10-03T02:36:08.828Z,98774
2017-10-03T02:38:16.306Z,98772
2017-10-03T02:40:22.417Z,98767
2017-10-03T02:42:29.038Z,98779
2017-10-03T02:44:36.502Z,98780
2017-10-03T02:46:42.349Z,98775
2017-10-03T02:48:48.337Z,98774
2017-10-03T02:50:56.366Z,98771
2017-10-03T02:53:02.247Z,98773
2017-10-03T02:55:08.221Z,98784
2017-10-03T02:57:14.773Z,98779
2017-10-03T02:59:21.520Z,98777
2017-10-03T03:01:27.863Z,98770
2017-10-03T03:03:35.621Z,98770
2017-10-03T03:05:42.185Z,98769
2017-10-03T03:07:48.410Z,98783
2017-10-03T03:09:57.146Z,98779
2017-10-03T03:12:03.083Z,98770
2017-10-03T03:14:09.014Z,98772
2017-10-03T03:16:15.827Z,98772
2017-10-03T03:18:22.016Z,98769
2017-10-03T03:20:28.798Z,98766
2017-10-03T03:22:36.080Z,98765
2017-10-03T03:24:41.834Z,98764
2017-10-03T03:26:47.852Z,98772
2017-10-03T03:28:55.751Z,98775
2017-10-03T03:31:01.491Z,98775
2017-10-03T03:33:07.344Z,98773
2017-10-03T03:35:13.506Z,98775
2017-10-03T03:37:20.378Z,98768
2017-10-03T03:39:28.028Z,98774
2017-10-03T03:41:34.443Z,98765
2017-10-03T03:43:41.406Z,98766
2017-10-03T03:45:48.949Z,98761
2017-10-03T03:47:58.882Z,98763
2017-10-03T03:50:13.764Z,98763
2017-10-03T03:52:25.806Z,98762
2017-10-03T03:54:36.436Z,98751
2017-10-03T03:56:43.988Z,98760
2017-10-03T03:58:53.447Z,98755
2017-10-03T04:00:59.438Z,98756
2017-10-03T04:03:05.582Z,98756
2017-10-03T04:05:11.504Z,98761
2017-10-03T04:07:17.837Z,98754
2017-10-03T04:09:24.303Z,98750
2017-10-03T04:11:35.759Z,98748
2017-10-03T04:13:41.578Z,98753
2017-10-03T04:15:48.238Z,98752
2017-10-03T04:17:56.906Z,98743
2017-10-03T04:20:02.870Z,98747
2017-10-03T04:22:09.063Z,98749
2017-10-03T04:24:15.683Z,98751
2017-10-03T04:26:22.203Z,98755
2017-10-03T04:28:29.162Z,98754
2017-10-03T04:30:37.514Z,98753
2017-10-03T04:32:43.182Z,98746
2017-10-03T04:34:49.318Z,98743
2017-10-03T04:36:56.806Z,98742
2017-10-03T04:39:02.751Z,98750
2017-10-03T04:41:08.040Z,98746
2017-10-03T04:43:14.777Z,98739
2017-10-03T04:45:21.477Z,98739
2017-10-03T04:47:30.878Z,98736
2017-10-03T04:49:39.890Z,98742
2017-10-03T04:51:45.699Z,98751
2017-10-03T04:53:51.488Z,98752
2017-10-03T04:56:00.950Z,98770
2017-10-03T04:58:07.402Z,98776
2017-10-03T05:00:13.723Z,98772
2017-10-03T05:02:20.305Z,98769
2017-10-03T05:04:28.486Z,98768
2017-10-03T05:06:35.676Z,98771
2017-10-03T05:08:41.882Z,98769
2017-10-03T05:10:48.616Z,98774
2017-10-03T05:12:58.982Z,98777
2017-10-03T05:15:05.041Z,98772
2017-10-03T05:17:11.231Z,98769
2017-10-03T05:19:17.966Z,98777
2017-10-03T05:21:25.011Z,98776
2017-10-03T05:23:33.716Z,98771
2017-10-03T05:25:39.734Z,98779
2017-10-03T05:27:45.830Z,98771
2017-10-03T05:29:52.378Z,98776
2017-10-03T05:32:00.881Z,98774
2017-10-03T05:34:06.850Z,98771
2017-10-03T05:36:12.951Z,98768
2017-10-03T05:38:18.898Z,98753
2017-10-03T05:40:33.214Z,98731
2017-10-03T05:42:40.996Z,98718
2017-10-03T05:44:47.455Z,98751
2017-10-03T05:46:53.582Z,98763
2017-10-03T05:49:06.745Z,98775
2017-10-03T05:51:14.933Z,98781
2017-10-03T05:53:21.284Z,98786
2017-10-03T05:55:27.421Z,98802
2017-10-03T05:57:35.435Z,98802
2017-10-03T05:59:41.680Z,98808
2017-10-03T06:01:48.178Z,98810
2017-10-03T06:03:54.301Z,98807
2017-10-03T06:06:02.463Z,98808
2017-10-03T06:08:08.364Z,98805
2017-10-03T06:10:16.955Z,98797
2017-10-03T06:12:23.475Z,98798
2017-10-03T06:14:30.880Z,98786
2017-10-03T06:16:39.524Z,98785
2017-10-03T06:18:45.570Z,98788
2017-10-03T06:20:51.883Z,98793
2017-10-03T06:23:00.064Z,98787
2017-10-03T06:25:06.934Z,98790
2017-10-03T06:27:13.026Z,98796
2017-10-03T06:29:19.761Z,98798
2017-10-03T06:31:25.873Z,98806
2017-10-03T06:33:33.205Z,98814
2017-10-03T06:35:40.927Z,98817
2017-10-03T06:37:46.923Z,98826
2017-10-03T06:39:52.806Z,98831
2017-10-03T06:42:00.736Z,98835
2017-10-03T06:44:06.298Z,98829
2017-10-03T06:46:12.527Z,98835
2017-10-03T06:48:19.610Z,98831
2017-10-03T06:50:26.451Z,98844
2017-10-03T06:52:32.318Z,98841
2017-10-03T06:54:39.970Z,98845
2017-10-03T06:56:45.473Z,98848
2017-10-03T06:58:52.427Z,98849
2017-10-03T07:01:01.251Z,98856
2017-10-03T07:03:07.464Z,98855
2017-10-03T07:05:14.475Z,98865
2017-10-03T07:07:21.366Z,98864
2017-10-03T07:09:27.258Z,98857
2017-10-03T07:11:32.865Z,98866
2017-10-03T07:13:45.092Z,98877
2017-10-03T07:15:52.447Z,98874
2017-10-03T07:18:01.712Z,98886
2017-10-03T07:20:11.801Z,98894
2017-10-03T07:22:20.303Z,98898
2017-10-03T07:24:29.053Z,98898
2017-10-03T07:26:38.877Z,98909
2017-10-03T07:28:57.188Z,98912
2017-10-03T07:31:12.038Z,98926
2017-10-03T07:33:19.400Z,98927
2017-10-03T07:35:25.155Z,98928
2017-10-03T07:37:31.686Z,98933
2017-10-03T07:39:41.792Z,98938
2017-10-03T07:41:48.319Z,98939
2017-10-03T07:44:01.640Z,98937
2017-10-03T07:46:13.010Z,98948
2017-10-03T07:48:24.160Z,98958
2017-10-03T07:50:30.528Z,98952
2017-10-03T07:52:36.635Z,98957
2017-10-03T07:54:42.187Z,98963
2017-10-03T07:56:51.103Z,98969
2017-10-03T07:58:56.923Z,98981
2017-10-03T08:01:12.230Z,98987
2017-10-03T08:03:19.175Z,98990
2017-10-03T08:05:26.749Z,98989
2017-10-03T08:07:34.298Z,98999
2017-10-03T08:09:45.834Z,99005
2017-10-03T08:11:51.975Z,99000
2017-10-03T08:13:57.580Z,99013
2017-10-03T08:16:04.780Z,99014
2017-10-03T08:18:11.615Z,99008
2017-10-03T08:20:18.135Z,99020
2017-10-03T08:22:24.486Z,99017
2017-10-03T08:24:33.667Z,99020
2017-10-03T08:26:41.522Z,99027
2017-10-03T08:28:48.467Z,99027
2017-10-03T08:30:54.233Z,99031
2017-10-03T08:32:59.982Z,99020
2017-10-03T08:35:11.178Z,99038
2017-10-03T08:39:28.380Z,99029
2017-10-03T08:41:51.016Z,99043
2017-10-03T08:44:00.798Z,99030
2017-10-03T08:46:07.002Z,99040
2017-10-03T08:48:17.072Z,99056
2017-10-03T08:50:23.678Z,99041
2017-10-03T08:52:31.368Z,99053
2017-10-03T08:54:39.516Z,99053
2017-10-03T08:56:47.262Z,99052
2017-10-03T08:58:52.783Z,99064
2017-10-03T09:00:58.755Z,99062
2017-10-03T09:03:05.065Z,99064
2017-10-03T09:05:13.897Z,99071
2017-10-03T09:07:23.411Z,99072
2017-10-03T09:09:31.185Z,99081
2017-10-03T09:11:37.050Z,99077
2017-10-03T09:13:43.448Z,99075
2017-10-03T09:15:49.614Z,99077
2017-10-03T09:17:55.119Z,99070
2017-10-03T09:20:01.383Z,99088
2017-10-03T09:22:12.066Z,99077
2017-10-03T09:24:20.304Z,99096
2017-10-03T09:26:28.143Z,99076
2017-10-03T09:28:35.064Z,99095
2017-10-03T09:30:41.656Z,99097
2017-10-03T09:32:47.408Z,99091
2017-10-03T09:34:53.906Z,99081
2017-10-03T09:36:59.982Z,99085
2017-10-03T09:39:06.839Z,99090
2017-10-03T09:41:15.859Z,99088
2017-10-03T09:43:23.209Z,99093
2017-10-03T09:45:34.928Z,99095
2017-10-03T09:47:40.229Z,99114
2017-10-03T09:49:46.561Z,99109
2017-10-03T09:51:53.879Z,99106
2017-10-03T09:53:59.709Z,99113
2017-10-03T09:56:07.127Z,99110
2017-10-03T09:58:20.692Z,99104
2017-10-03T10:00:33.038Z,99148
2017-10-03T10:02:40.483Z,99127
2017-10-03T10:04:53.707Z,99137
2017-10-03T10:07:01.480Z,99179
2017-10-03T10:09:07.044Z,99148
2017-10-03T10:11:16.809Z,99167
2017-10-03T10:13:23.359Z,99138
2017-10-03T10:15:34.268Z,99156
2017-10-03T10:17:41.161Z,99162
2017-10-03T10:19:54.675Z,99155
2017-10-03T10:22:07.306Z,99149
2017-10-03T10:24:20.893Z,99170
2017-10-03T10:26:29.746Z,99177
2017-10-03T10:28:36.576Z,99184
2017-10-03T10:30:44.895Z,99182
2017-10-03T10:32:51.123Z,99191
2017-10-03T10:34:57.749Z,99191
2017-10-03T10:37:04.326Z,99189
2017-10-03T10:39:10.448Z,99224
2017-10-03T10:41:18.753Z,99212
2017-10-03T10:43:25.028Z,99228
2017-10-03T10:46:01.938Z,99218
2017-10-03T10:48:08.633Z,99205
2017-10-03T10:52:48.616Z,99210
2017-10-03T10:54:54.085Z,99216
2017-10-03T10:57:00.916Z,99211
2017-10-03T10:59:07.841Z,99235
2017-10-03T11:01:17.137Z,99237
2017-10-03T11:03:24.151Z,99231
2017-10-03T11:05:31.345Z,99217
2017-10-03T11:07:38.074Z,99214
2017-10-03T11:09:46.630Z,99238
2017-10-03T11:11:53.069Z,99232
2017-10-03T11:13:59.250Z,99246
2017-10-03T11:16:06.066Z,99240
2017-10-03T11:18:13.265Z,99264
2017-10-03T11:20:23.702Z,99259
2017-10-03T11:22:37.582Z,99261
2017-10-03T11:24:48.737Z,99274
2017-10-03T11:26:55.469Z,99281
2017-10-03T11:29:02.251Z,99276
2017-10-03T11:31:08.039Z,99251
2017-10-03T11:33:14.226Z,99287
2017-10-03T11:35:23.749Z,99262
2017-10-03T11:37:36.375Z,99263
2017-10-03T11:39:41.870Z,99256
2017-10-03T11:41:48.851Z,99279
2017-10-03T11:44:58.203Z,99265
2017-10-03T11:47:06.540Z,99269
2017-10-03T11:49:13.863Z,99273
2017-10-03T11:51:23.757Z,99298
2017-10-03T11:53:34.180Z,99297
2017-10-03T11:55:40.902Z,99307
2017-10-03T11:57:49.592Z,99307
2017-10-03T11:59:58.497Z,99304
2017-10-03T12:02:05.564Z,99295
2017-10-03T12:04:11.630Z,99327
2017-10-03T12:06:22.697Z,99312
2017-10-03T12:08:32.343Z,99317
2017-10-03T12:10:40.984Z,99304
2017-10-03T12:12:47.482Z,99308
2017-10-03T12:14:54.426Z,99293
2017-10-03T12:17:02.244Z,99283
2017-10-03T12:19:08.482Z,99300
2017-10-03T12:21:17.144Z,99282
2017-10-03T12:23:26.975Z,99287
2017-10-03T12:25:35.861Z,99300
2017-10-03T12:27:41.550Z,99300
2017-10-03T12:29:51.013Z,99301
2017-10-03T12:31:57.363Z,99304
2017-10-03T12:34:02.948Z,99313
2017-10-03T12:36:11.829Z,99310
2017-10-03T12:38:23.797Z,99307
2017-10-03T12:40:30.884Z,99327
2017-10-03T12:42:40.107Z,99310
2017-10-03T12:44:45.868Z,99303
2017-10-03T12:46:52.127Z,99307
2017-10-03T12:48:58.668Z,99298
2017-10-03T12:51:05.675Z,99338
2017-10-03T12:53:11.944Z,99302
2017-10-03T12:55:17.903Z,99332
2017-10-03T12:57:27.883Z,99298
2017-10-03T12:59:40.025Z,99313
2017-10-03T13:01:48.134Z,99305
2017-10-03T13:04:18.580Z,99307
2017-10-03T13:06:28.712Z,99313
2017-10-03T13:08:35.585Z,99311
2017-10-03T13:10:45.094Z,99306
2017-10-03T13:12:51.754Z,99309
2017-10-03T13:14:59.137Z,99314
2017-10-03T13:17:05.801Z,99330
2017-10-03T13:19:13.212Z,99307
2017-10-03T13:21:28.558Z,99319
2017-10-03T13:23:36.408Z,99312
2017-10-03T13:25:42.130Z,99319
2017-10-03T13:27:47.684Z,99335
2017-10-03T13:29:53.604Z,99331
2017-10-03T13:31:59.333Z,99331
2017-10-03T13:34:04.904Z,99343
2017-10-03T13:36:11.251Z,99333
2017-10-03T13:38:21.656Z,99358
2017-10-03T13:40:33.453Z,99355
2017-10-03T13:42:41.932Z,99336
2017-10-03T13:44:49.023Z,99334
2017-10-03T13:46:54.976Z,99337
2017-10-03T13:49:02.149Z,99346
2017-10-03T13:51:07.762Z,99331
2017-10-03T13:53:13.899Z,99339
2017-10-03T13:55:20.021Z,99343
2017-10-03T13:57:26.351Z,99360
2017-10-03T13:59:32.757Z,99340
2017-10-03T14:01:41.778Z,99339
2017-10-03T14:03:52.713Z,99349
2017-10-03T14:06:02.995Z,99355
2017-10-03T14:08:22.421Z,99392
2017-10-03T14:10:34.710Z,99355
2017-10-03T14:12:54.043Z,99366
2017-10-03T14:15:22.125Z,99356
2017-10-03T14:17:38.031Z,99355
2017-10-03T14:19:46.621Z,99368
2017-10-03T14:21:56.585Z,99363
2017-10-03T14:24:07.276Z,99382
2017-10-03T14:26:20.067Z,99364
2017-10-03T14:30:59.421Z,99375
2017-10-03T14:33:09.110Z,99374
2017-10-03T14:35:22.656Z,99372
2017-10-03T14:37:35.773Z,99357
2017-10-03T14:39:44.883Z,99355
2017-10-03T14:42:00.000Z,99359
2017-10-03T14:44:13.414Z,99361
2017-10-03T14:46:29.878Z,99391
2017-10-03T14:48:43.798Z,99392
2017-10-03T14:51:16.392Z,99374
2017-10-03T14:53:42.155Z,99371
2017-10-03T14:55:56.158Z,99381
2017-10-03T14:58:10.369Z,99381
2017-10-03T15:00:21.809Z,99371
2017-10-03T15:02:35.733Z,99394
2017-10-03T15:07:21.433Z,99396
2017-10-03T15:09:38.390Z,99391
2017-10-03T15:11:59.544Z,99392
2017-10-03T15:14:10.623Z,99388
2017-10-03T15:16:25.377Z,99393
2017-10-03T15:18:42.436Z,99403
2017-10-03T15:20:57.164Z,99406
2017-10-03T15:23:09.485Z,99398
2017-10-03T15:25:24.080Z,99419
2017-10-03T15:27:37.341Z,99481
2017-10-03T15:29:46.204Z,99492
2017-10-03T15:31:52.174Z,99445
2017-10-03T15:34:03.058Z,99433
2017-10-03T15:36:10.499Z,99435
2017-10-03T15:38:16.863Z,99433
2017-10-03T15:40:24.043Z,99421
2017-10-03T15:42:35.980Z,99424
2017-10-03T15:44:42.938Z,99437
2017-10-03T15:46:51.135Z,99444
2017-10-03T15:49:03.053Z,99444
2017-10-03T15:51:10.977Z,99456
2017-10-03T15:53:23.962Z,99454
2017-10-03T15:55:31.715Z,99456
2017-10-03T15:57:39.416Z,99459
2017-10-03T15:59:51.964Z,99466
2017-10-03T16:02:00.961Z,99477
2017-10-03T16:04:11.475Z,99474
2017-10-03T16:06:17.758Z,99476
2017-10-03T16:08:23.592Z,99478
2017-10-03T16:10:34.948Z,99481
2017-10-03T16:12:42.478Z,99478
2017-10-03T16:14:51.155Z,99490
2017-10-03T16:16:56.594Z,99476
2017-10-03T16:19:02.804Z,99475
2017-10-03T16:21:09.221Z,99477
2017-10-03T16:23:14.976Z,99494
2017-10-03T16:25:22.065Z,99510
2017-10-03T16:27:28.957Z,99562
2017-10-03T16:29:37.322Z,99603
2017-10-03T16:31:45.666Z,99557
2017-10-03T16:34:29.430Z,99558
2017-10-03T16:36:41.035Z,99543
2017-10-03T16:38:51.346Z,99535
2017-10-03T16:41:01.831Z,99524
2017-10-03T16:43:12.818Z,99519
2017-10-03T16:45:22.198Z,99517
2017-10-03T16:47:36.151Z,99519
2017-10-03T16:49:48.332Z,99520
2017-10-03T16:51:59.977Z,99537
2017-10-03T16:54:09.933Z,99542
2017-10-03T16:56:20.725Z,99542
2017-10-03T16:58:29.452Z,99546
2017-10-03T17:00:35.302Z,99552
2017-10-03T17:02:43.942Z,99557
2017-10-03T17:04:53.605Z,99556
2017-10-03T17:07:00.075Z,99559
2017-10-03T17:09:08.444Z,99567
2017-10-03T17:11:16.436Z,99576
2017-10-03T17:13:27.682Z,99582
2017-10-03T17:15:41.201Z,99590
2017-10-03T17:17:52.037Z,99594
2017-10-03T17:20:00.667Z,99594
2017-10-03T17:24:31.461Z,99597
2017-10-03T17:26:45.038Z,99598
2017-10-03T17:28:57.091Z,99597
2017-10-03T17:31:12.454Z,99593
2017-10-03T17:33:21.170Z,99594
2017-10-03T17:35:28.816Z,99603
2017-10-03T17:37:43.545Z,99604
2017-10-03T17:39:51.150Z,99598
